« Back
NWS Peachtree City, Ga » Text Product » CSG Terminal Aerodrome Forecast


Printer-friendly Version
Current Version              Previous Versions:   1  2  3  4  5  6  7  8  9  

Terminal Aerodrome Forecast

473
FTUS42 KFFC 261729
TAFCSG
TAF
KCSG 261729Z 2618/2718 23006KT P6SM SCT050
     FM270200 00000KT P6SM SCT045
     FM271500 14004KT P6SM BKN050=

USA.gov is the U.S. government's official web portal to all federal, state and local government web resources and services.